createdAt,value
2023-02-08T00:01:28.014Z,2.70
2023-02-08T00:03:56.712Z,2.60
2023-02-08T00:06:25.256Z,2.33
2023-02-08T00:08:53.696Z,2.51
2023-02-08T00:11:22.165Z,2.51
2023-02-08T00:13:50.604Z,2.67
2023-02-08T00:16:19.648Z,2.70
2023-02-08T00:18:48.210Z,2.69
2023-02-08T00:21:18.497Z,2.72
2023-02-08T00:23:47.379Z,2.73
2023-02-08T00:26:16.435Z,2.33
2023-02-08T00:28:45.355Z,2.25
2023-02-08T00:31:14.051Z,2.20
2023-02-08T00:33:42.909Z,2.40
2023-02-08T00:36:11.988Z,2.60
2023-02-08T00:38:43.668Z,2.63
2023-02-08T00:41:12.485Z,2.61
2023-02-08T00:43:41.253Z,2.41
2023-02-08T00:46:11.173Z,2.46
2023-02-08T00:48:39.629Z,2.47
2023-02-08T00:51:13.751Z,2.47
2023-02-08T00:53:45.069Z,2.40
2023-02-08T00:56:15.429Z,2.23
2023-02-08T00:58:43.920Z,2.01
2023-02-08T01:01:13.792Z,1.82
2023-02-08T01:03:43.801Z,2.19
2023-02-08T01:06:18.304Z,2.33
2023-02-08T01:08:47.336Z,2.19
2023-02-08T01:11:25.298Z,2.07
2023-02-08T01:13:57.543Z,1.91
2023-02-08T01:16:32.108Z,2.14
2023-02-08T01:19:03.660Z,2.11
2023-02-08T01:21:35.448Z,2.28
2023-02-08T01:24:05.543Z,2.16
2023-02-08T01:26:35.105Z,2.15
2023-02-08T01:29:04.659Z,2.23
2023-02-08T01:31:36.568Z,2.17
2023-02-08T01:34:06.120Z,2.08
2023-02-08T01:36:35.607Z,2.00
2023-02-08T01:39:06.172Z,2.16
2023-02-08T01:41:38.475Z,2.23
2023-02-08T01:44:12.754Z,2.48
2023-02-08T01:46:43.865Z,2.20
2023-02-08T01:49:20.868Z,2.28
2023-02-08T01:52:01.860Z,2.17
2023-02-08T01:54:38.645Z,2.06
2023-02-08T01:57:08.134Z,2.05
2023-02-08T01:59:46.120Z,2.19
2023-02-08T02:02:17.910Z,1.94
2023-02-08T02:04:49.018Z,1.92
2023-02-08T02:07:19.687Z,1.81
2023-02-08T02:09:55.291Z,1.95
2023-02-08T02:12:25.047Z,1.95
2023-02-08T02:14:54.224Z,2.01
2023-02-08T02:17:23.032Z,1.82
2023-02-08T02:20:15.920Z,1.84
2023-02-08T02:23:09.255Z,2.19
2023-02-08T02:25:59.364Z,2.22
2023-02-08T02:29:02.916Z,2.07
2023-02-08T02:31:56.038Z,2.19
2023-02-08T02:35:00.157Z,2.01
2023-02-08T02:37:53.558Z,2.06
2023-02-08T02:40:40.052Z,2.18
2023-02-08T02:43:35.076Z,2.16
2023-02-08T02:46:07.731Z,1.94
2023-02-08T02:48:48.529Z,2.03
2023-02-08T02:51:16.926Z,2.15
2023-02-08T02:53:59.481Z,2.19
2023-02-08T02:56:38.336Z,2.17
2023-02-08T02:59:10.480Z,2.23
2023-02-08T03:01:40.617Z,2.33
2023-02-08T03:04:34.481Z,2.23
2023-02-08T03:07:14.884Z,2.36
2023-02-08T03:10:05.352Z,2.45
2023-02-08T03:12:58.917Z,2.46
2023-02-08T03:15:30.320Z,2.60
2023-02-08T03:18:09.613Z,2.19
2023-02-08T03:20:43.451Z,2.19
2023-02-08T03:23:22.002Z,2.30
2023-02-08T03:26:16.330Z,2.46
2023-02-08T03:28:58.947Z,2.62
2023-02-08T03:31:38.464Z,2.54
2023-02-08T03:34:41.803Z,2.59
2023-02-08T03:37:22.538Z,2.75
2023-02-08T03:39:56.523Z,2.72
2023-02-08T03:42:28.326Z,2.61
2023-02-08T03:45:02.835Z,2.27
2023-02-08T03:47:37.670Z,2.12
2023-02-08T03:50:11.902Z,2.38
2023-02-08T03:52:40.814Z,2.22
2023-02-08T03:55:14.594Z,2.02
2023-02-08T03:57:56.978Z,1.90
2023-02-08T04:00:25.942Z,1.85
2023-02-08T04:03:03.184Z,2.03
2023-02-08T04:05:31.944Z,2.33
2023-02-08T04:08:00.967Z,2.38
2023-02-08T04:10:29.572Z,2.32
2023-02-08T04:12:58.051Z,2.36
2023-02-08T04:15:27.654Z,2.33
2023-02-08T04:17:56.178Z,2.41
2023-02-08T04:20:24.626Z,2.37
2023-02-08T04:22:53.113Z,2.41
2023-02-08T04:25:21.669Z,2.42
2023-02-08T04:27:50.198Z,2.25
2023-02-08T04:30:18.656Z,2.30
2023-02-08T04:32:47.185Z,2.28
2023-02-08T04:35:15.803Z,2.45
2023-02-08T04:37:44.303Z,2.26
2023-02-08T04:40:12.891Z,2.12
2023-02-08T04:42:41.294Z,1.99
2023-02-08T04:45:10.802Z,2.02
2023-02-08T04:47:39.303Z,2.04
2023-02-08T04:50:07.910Z,1.91
2023-02-08T04:52:36.484Z,1.88
2023-02-08T04:55:05.282Z,1.92
2023-02-08T04:57:33.988Z,1.99
2023-02-08T05:00:02.700Z,2.09
2023-02-08T05:02:31.292Z,1.94
2023-02-08T05:04:59.832Z,1.72
2023-02-08T05:07:28.372Z,1.67
2023-02-08T05:09:56.881Z,1.64
2023-02-08T05:12:25.491Z,1.76
2023-02-08T05:14:53.895Z,1.69
2023-02-08T05:17:22.391Z,1.69
2023-02-08T05:19:50.911Z,1.47
2023-02-08T05:22:19.418Z,1.62
2023-02-08T05:24:47.842Z,1.64
2023-02-08T05:27:16.298Z,1.88
2023-02-08T05:29:44.829Z,1.98
2023-02-08T05:32:13.432Z,2.09
2023-02-08T05:34:41.890Z,2.17
2023-02-08T05:37:10.577Z,2.16
2023-02-08T05:39:39.064Z,2.03
2023-02-08T05:42:07.549Z,2.35
2023-02-08T05:44:36.153Z,2.63
2023-02-08T05:47:04.766Z,2.54
2023-02-08T05:49:33.359Z,2.54
2023-02-08T05:52:01.812Z,2.37
2023-02-08T05:54:30.265Z,2.36
2023-02-08T05:56:58.644Z,2.48
2023-02-08T05:59:27.186Z,2.61
2023-02-08T06:01:55.763Z,2.73
2023-02-08T06:04:24.377Z,2.75
2023-02-08T06:06:52.853Z,2.57
2023-02-08T06:09:21.311Z,2.50
2023-02-08T06:11:50.224Z,2.28
2023-02-08T06:14:18.810Z,2.39
2023-02-08T06:16:47.309Z,2.43
2023-02-08T06:19:15.770Z,2.49
2023-02-08T06:21:44.410Z,2.60
2023-02-08T06:24:13.985Z,2.57
2023-02-08T06:26:44.337Z,2.48
2023-02-08T06:29:12.812Z,2.37
2023-02-08T06:31:41.419Z,2.17
2023-02-08T06:34:10.249Z,2.01
2023-02-08T06:36:38.684Z,2.00
2023-02-08T06:39:07.104Z,2.13
2023-02-08T06:41:36.105Z,2.30
2023-02-08T06:44:04.621Z,2.43
2023-02-08T06:46:33.017Z,2.29
2023-02-08T06:49:01.455Z,2.38
2023-02-08T06:51:29.930Z,2.18
2023-02-08T06:53:58.466Z,2.15
2023-02-08T06:56:26.929Z,2.24
2023-02-08T06:58:57.058Z,2.23
2023-02-08T07:01:25.880Z,2.15
2023-02-08T07:03:54.360Z,2.29
2023-02-08T07:06:23.104Z,2.24
2023-02-08T07:08:51.639Z,2.13
2023-02-08T07:11:21.555Z,2.44
2023-02-08T07:13:51.763Z,2.51
2023-02-08T07:16:21.107Z,2.61
2023-02-08T07:18:49.601Z,2.35
2023-02-08T07:21:18.074Z,2.32
2023-02-08T07:23:46.709Z,2.58
2023-02-08T07:26:15.467Z,2.49
2023-02-08T07:28:44.328Z,2.40
2023-02-08T07:31:16.625Z,2.58
2023-02-08T07:33:45.374Z,2.61
2023-02-08T07:36:13.966Z,2.39
2023-02-08T07:38:42.528Z,2.51
2023-02-08T07:41:13.582Z,2.59
2023-02-08T07:43:43.184Z,2.78
2023-02-08T07:46:18.363Z,2.82
2023-02-08T07:48:49.473Z,2.97
2023-02-08T07:51:17.996Z,3.25
2023-02-08T07:53:46.832Z,3.65
2023-02-08T07:56:15.573Z,3.70
2023-02-08T07:58:44.262Z,3.52
2023-02-08T08:01:21.950Z,3.66
2023-02-08T08:03:52.806Z,4.13
2023-02-08T08:06:23.276Z,4.03
2023-02-08T08:08:52.144Z,4.11
2023-02-08T08:11:21.744Z,4.44
2023-02-08T08:13:51.249Z,4.19
2023-02-08T08:16:20.855Z,4.29
2023-02-08T08:18:49.535Z,4.65
2023-02-08T08:21:18.063Z,4.68
2023-02-08T08:23:47.576Z,4.55
2023-02-08T08:26:18.982Z,4.49
2023-02-08T08:28:48.377Z,4.08
2023-02-08T08:31:20.365Z,3.92
2023-02-08T08:33:49.885Z,3.85
2023-02-08T08:36:18.800Z,3.74
2023-02-08T08:38:47.310Z,4.03
2023-02-08T08:41:18.291Z,4.17
2023-02-08T08:43:49.187Z,4.53
2023-02-08T08:46:18.142Z,4.65
2023-02-08T08:48:47.109Z,4.77
2023-02-08T08:51:15.658Z,5.04
2023-02-08T08:53:44.252Z,5.09
2023-02-08T08:56:12.837Z,5.06
2023-02-08T08:58:41.549Z,5.66
2023-02-08T09:01:10.021Z,5.41
2023-02-08T09:03:38.547Z,5.45
2023-02-08T09:06:07.108Z,5.74
2023-02-08T09:08:35.551Z,5.51
2023-02-08T09:11:08.081Z,5.40
2023-02-08T09:13:37.387Z,5.46
2023-02-08T09:16:11.449Z,5.65
2023-02-08T09:18:40.526Z,6.01
2023-02-08T09:21:15.989Z,5.72
2023-02-08T09:23:47.699Z,6.24
2023-02-08T09:26:18.249Z,6.19
2023-02-08T09:28:47.051Z,5.91
2023-02-08T09:31:21.507Z,5.94
2023-02-08T09:33:52.292Z,6.40
2023-02-08T09:36:23.242Z,6.09
2023-02-08T09:39:00.536Z,6.02
2023-02-08T09:42:02.396Z,5.94
2023-02-08T09:44:46.104Z,5.90
2023-02-08T09:47:20.407Z,5.88
2023-02-08T09:50:02.529Z,5.67
2023-02-08T09:52:48.538Z,5.88
2023-02-08T09:55:32.568Z,6.41
2023-02-08T09:58:08.497Z,6.45
2023-02-08T10:00:42.725Z,6.14
2023-02-08T10:03:28.546Z,6.45
2023-02-08T10:05:57.365Z,6.38
2023-02-08T10:08:35.007Z,6.22
2023-02-08T10:11:09.829Z,6.54
2023-02-08T10:13:42.609Z,6.33
2023-02-08T10:16:44.161Z,6.48
2023-02-08T10:19:21.783Z,6.21
2023-02-08T10:22:15.920Z,6.37
2023-02-08T10:25:19.662Z,6.13
2023-02-08T10:28:04.811Z,5.94
2023-02-08T10:30:50.285Z,6.33
2023-02-08T10:34:02.307Z,6.35
2023-02-08T10:36:42.676Z,6.42
2023-02-08T10:39:24.882Z,6.62
2023-02-08T10:41:53.532Z,6.90
2023-02-08T10:44:36.365Z,6.88
2023-02-08T10:47:17.345Z,6.93
2023-02-08T10:49:58.982Z,7.12
2023-02-08T10:52:27.846Z,7.23
2023-02-08T10:54:59.673Z,6.51
2023-02-08T10:57:34.225Z,6.30
2023-02-08T11:00:07.509Z,6.88
2023-02-08T11:02:41.514Z,6.84
2023-02-08T11:05:18.450Z,6.60
2023-02-08T11:07:47.310Z,6.79
2023-02-08T11:10:18.662Z,7.06
2023-02-08T11:13:05.894Z,7.38
2023-02-08T11:15:47.110Z,7.85
2023-02-08T11:18:33.379Z,7.58
2023-02-08T11:21:21.763Z,7.86
2023-02-08T11:23:55.785Z,7.44
2023-02-08T11:26:37.658Z,7.34
2023-02-08T11:29:15.193Z,7.87
2023-02-08T11:32:02.986Z,7.85
2023-02-08T11:34:39.035Z,8.19
2023-02-08T11:37:21.251Z,7.49
2023-02-08T11:39:55.521Z,7.85
2023-02-08T11:42:31.496Z,7.67
2023-02-08T11:45:01.193Z,8.29
2023-02-08T11:47:33.420Z,8.05
2023-02-08T11:50:05.833Z,7.93
2023-02-08T11:52:42.921Z,8.32
2023-02-08T11:55:13.609Z,8.14
2023-02-08T11:58:01.615Z,8.73
2023-02-08T12:00:37.417Z,9.13
2023-02-08T12:03:15.178Z,8.44
2023-02-08T12:06:08.133Z,8.17
2023-02-08T12:08:54.793Z,7.82
2023-02-08T12:11:46.666Z,8.27
2023-02-08T12:14:53.096Z,8.20
2023-02-08T12:17:37.330Z,7.83
2023-02-08T12:20:25.987Z,7.78
2023-02-08T12:23:25.295Z,7.87
2023-02-08T12:26:05.630Z,8.27
2023-02-08T12:28:51.514Z,8.84
2023-02-08T12:31:36.030Z,10.07
2023-02-08T12:34:28.749Z,10.15
2023-02-08T12:37:35.161Z,10.66
2023-02-08T12:40:32.392Z,10.28
2023-02-08T12:43:14.964Z,10.74
2023-02-08T12:46:01.959Z,10.63
2023-02-08T12:49:13.088Z,10.37
2023-02-08T12:51:47.459Z,10.19
2023-02-08T12:54:26.985Z,9.77
2023-02-08T12:57:02.405Z,10.56
2023-02-08T12:59:54.402Z,10.17
2023-02-08T13:02:26.415Z,11.30
2023-02-08T13:05:00.564Z,12.14
2023-02-08T13:08:18.210Z,11.62
2023-02-08T13:10:53.671Z,12.37
2023-02-08T13:13:31.516Z,10.74
2023-02-08T13:16:17.126Z,9.69
2023-02-08T13:18:55.973Z,10.00
2023-02-08T13:21:32.598Z,9.94
2023-02-08T13:24:01.315Z,10.83
2023-02-08T13:26:35.485Z,10.13
2023-02-08T13:29:05.142Z,9.90
2023-02-08T13:31:42.185Z,9.11
2023-02-08T13:34:30.707Z,7.86
2023-02-08T13:37:16.597Z,7.99
2023-02-08T13:40:04.402Z,7.08
2023-02-08T13:42:43.359Z,7.41
2023-02-08T13:45:26.612Z,7.49
2023-02-08T13:48:04.646Z,7.43
2023-02-08T13:50:51.018Z,7.28
2023-02-08T13:53:39.690Z,6.84
2023-02-08T13:56:13.736Z,6.93
2023-02-08T13:58:48.366Z,6.86
2023-02-08T14:01:23.331Z,7.06
2023-02-08T14:04:10.086Z,7.28
2023-02-08T14:06:55.979Z,7.33
2023-02-08T14:09:46.879Z,6.86
2023-02-08T14:12:23.988Z,6.70
2023-02-08T14:15:30.359Z,6.51
2023-02-08T14:18:00.991Z,6.12
2023-02-08T14:20:34.061Z,6.09
2023-02-08T14:23:20.928Z,6.29
2023-02-08T14:25:51.987Z,6.56
2023-02-08T14:28:35.986Z,6.74
2023-02-08T14:31:07.937Z,6.39
2023-02-08T14:33:40.814Z,6.32
2023-02-08T14:36:30.785Z,6.12
2023-02-08T14:39:26.415Z,5.93
2023-02-08T14:42:05.766Z,5.90
2023-02-08T14:44:43.648Z,5.74
2023-02-08T14:47:32.208Z,5.73
2023-02-08T14:50:25.027Z,5.73
2023-02-08T14:53:01.584Z,5.74
2023-02-08T14:55:54.759Z,5.84
2023-02-08T14:58:33.232Z,5.70
2023-02-08T15:01:13.978Z,5.90
2023-02-08T15:03:43.835Z,6.03
2023-02-08T15:06:24.094Z,5.58
2023-02-08T15:08:54.477Z,5.64
2023-02-08T15:11:27.048Z,5.58
2023-02-08T15:14:00.953Z,5.60
2023-02-08T15:16:41.199Z,5.40
2023-02-08T15:19:21.396Z,5.10
2023-02-08T15:21:50.038Z,5.09
2023-02-08T15:24:30.056Z,4.95
2023-02-08T15:26:58.658Z,4.74
2023-02-08T15:29:42.757Z,4.75
2023-02-08T15:32:16.906Z,4.78
2023-02-08T15:34:52.569Z,4.81
2023-02-08T15:37:21.965Z,4.63
2023-02-08T15:39:58.394Z,4.74
2023-02-08T15:42:29.941Z,4.59
2023-02-08T15:45:00.881Z,4.65
2023-02-08T15:47:33.709Z,4.40
2023-02-08T15:50:05.666Z,4.50
2023-02-08T15:52:37.093Z,4.31
2023-02-08T15:55:12.797Z,4.17
2023-02-08T15:57:44.427Z,4.20
2023-02-08T16:00:21.289Z,4.17
2023-02-08T16:02:56.304Z,3.98
2023-02-08T16:05:28.625Z,3.93
2023-02-08T16:07:58.080Z,3.80
2023-02-08T16:10:40.846Z,3.76
2023-02-08T16:13:31.957Z,3.76
2023-02-08T16:16:21.441Z,3.69
2023-02-08T16:19:05.633Z,3.72
2023-02-08T16:21:39.809Z,3.82
2023-02-08T16:24:11.126Z,3.78
2023-02-08T16:26:44.708Z,3.69
2023-02-08T16:29:27.265Z,3.72
2023-02-08T16:32:07.922Z,3.71
2023-02-08T16:34:38.968Z,3.76
2023-02-08T16:37:21.041Z,3.83
2023-02-08T16:39:54.244Z,3.85
2023-02-08T16:42:27.077Z,4.04
2023-02-08T16:45:01.406Z,4.20
2023-02-08T16:47:42.123Z,4.26
2023-02-08T16:50:25.424Z,4.24
2023-02-08T16:53:03.157Z,4.23
2023-02-08T16:55:34.143Z,4.35
2023-02-08T16:58:02.680Z,4.48
2023-02-08T17:00:34.643Z,4.57
2023-02-08T17:03:03.277Z,4.63
2023-02-08T17:05:37.933Z,4.70
2023-02-08T17:08:12.950Z,4.62
2023-02-08T17:10:42.521Z,4.52
2023-02-08T17:13:21.221Z,4.58
2023-02-08T17:15:51.357Z,4.53
2023-02-08T17:18:21.452Z,4.47
2023-02-08T17:20:50.819Z,4.38
2023-02-08T17:23:19.274Z,4.41
2023-02-08T17:25:47.802Z,4.38
2023-02-08T17:28:19.426Z,4.33
2023-02-08T17:30:49.409Z,4.18
2023-02-08T17:33:18.764Z,4.14
2023-02-08T17:35:50.514Z,4.17
2023-02-08T17:38:20.597Z,4.03
2023-02-08T17:40:49.110Z,3.98
2023-02-08T17:43:17.925Z,4.01
2023-02-08T17:45:47.064Z,4.04
2023-02-08T17:48:16.275Z,4.04
2023-02-08T17:50:51.115Z,3.99
2023-02-08T17:53:20.205Z,3.92
2023-02-08T17:55:48.652Z,3.79
2023-02-08T17:58:18.390Z,3.58
2023-02-08T18:00:47.027Z,3.58
2023-02-08T18:03:17.436Z,3.62
2023-02-08T18:05:45.850Z,3.67
2023-02-08T18:08:14.506Z,3.58
2023-02-08T18:10:43.345Z,3.54
2023-02-08T18:13:12.004Z,3.50
2023-02-08T18:15:40.535Z,3.37
2023-02-08T18:18:09.259Z,3.36
2023-02-08T18:20:37.696Z,3.40
2023-02-08T18:23:06.213Z,3.43
2023-02-08T18:25:34.653Z,3.32
2023-02-08T18:28:03.149Z,3.40
2023-02-08T18:30:32.567Z,3.37
2023-02-08T18:33:01.058Z,3.32
2023-02-08T18:35:29.495Z,3.24
2023-02-08T18:37:58.008Z,3.23
2023-02-08T18:40:26.572Z,3.19
2023-02-08T18:42:55.234Z,3.17
2023-02-08T18:45:23.708Z,3.29
2023-02-08T18:47:52.253Z,3.32
2023-02-08T18:50:20.667Z,3.25
2023-02-08T18:52:49.095Z,3.16
2023-02-08T18:55:17.572Z,2.97
2023-02-08T18:57:49.065Z,2.93
2023-02-08T19:00:17.652Z,2.89
2023-02-08T19:02:46.814Z,2.85
2023-02-08T19:05:15.659Z,2.65
2023-02-08T19:07:44.156Z,2.50
2023-02-08T19:10:12.605Z,2.19
2023-02-08T19:12:41.867Z,2.15
2023-02-08T19:15:10.434Z,2.09
2023-02-08T19:17:38.864Z,2.02
2023-02-08T19:20:08.290Z,2.01
2023-02-08T19:22:36.726Z,2.10
2023-02-08T19:25:05.609Z,2.13
2023-02-08T19:27:34.267Z,2.02
2023-02-08T19:30:04.995Z,1.97
2023-02-08T19:32:33.708Z,2.08
2023-02-08T19:35:02.287Z,2.20
2023-02-08T19:37:30.767Z,2.15
2023-02-08T19:39:59.239Z,2.21
2023-02-08T19:42:27.736Z,2.18
2023-02-08T19:44:56.719Z,2.12
2023-02-08T19:47:43.429Z,2.20
2023-02-08T19:50:14.648Z,2.23
2023-02-08T19:52:43.737Z,2.12
2023-02-08T19:55:12.294Z,2.22
2023-02-08T19:57:40.969Z,2.25
2023-02-08T20:00:22.612Z,2.23
2023-02-08T20:02:52.214Z,2.19
2023-02-08T20:05:21.032Z,2.16
2023-02-08T20:07:49.549Z,2.14
2023-02-08T20:10:18.052Z,2.18
2023-02-08T20:12:46.461Z,2.13
2023-02-08T20:15:14.917Z,2.21
2023-02-08T20:17:44.862Z,2.08
2023-02-08T20:20:13.387Z,2.04
2023-02-08T20:22:41.823Z,2.02
2023-02-08T20:25:10.252Z,1.99
2023-02-08T20:27:38.952Z,1.86
2023-02-08T20:30:07.816Z,1.81
2023-02-08T20:32:36.439Z,1.69
2023-02-08T20:35:05.061Z,1.71
2023-02-08T20:37:33.982Z,1.72
2023-02-08T20:40:03.937Z,1.65
2023-02-08T20:42:32.360Z,1.62
2023-02-08T20:45:00.982Z,1.62
2023-02-08T20:47:31.882Z,1.51
2023-02-08T20:50:05.029Z,1.59
2023-02-08T20:52:38.784Z,1.64
2023-02-08T20:55:08.557Z,1.75
2023-02-08T20:57:37.073Z,1.81
2023-02-08T21:00:06.324Z,1.74
2023-02-08T21:02:35.009Z,1.74
2023-02-08T21:05:04.107Z,1.75
2023-02-08T21:07:33.045Z,1.61
2023-02-08T21:10:04.189Z,1.56
2023-02-08T21:12:33.477Z,1.53
2023-02-08T21:15:02.151Z,1.47
2023-02-08T21:17:30.866Z,1.44
2023-02-08T21:19:59.482Z,1.38
2023-02-08T21:22:27.855Z,1.47
2023-02-08T21:24:56.333Z,1.52
2023-02-08T21:27:24.874Z,1.59
2023-02-08T21:29:53.378Z,1.65
2023-02-08T21:32:21.897Z,1.63
2023-02-08T21:34:52.496Z,1.81
2023-02-08T21:37:20.944Z,1.91
2023-02-08T21:39:49.554Z,1.96
2023-02-08T21:42:18.003Z,1.91
2023-02-08T21:44:46.442Z,1.97
2023-02-08T21:47:14.842Z,1.95
2023-02-08T21:50:01.990Z,1.73
2023-02-08T21:52:49.153Z,1.61
2023-02-08T21:55:17.773Z,1.50
2023-02-08T21:57:46.334Z,1.44
2023-02-08T22:00:15.218Z,1.48
2023-02-08T22:02:43.998Z,1.48
2023-02-08T22:05:13.670Z,1.34
2023-02-08T22:07:56.929Z,1.24
2023-02-08T22:10:30.963Z,1.35
2023-02-08T22:12:59.678Z,1.46
2023-02-08T22:15:30.277Z,1.52
2023-02-08T22:18:01.893Z,1.44
2023-02-08T22:20:31.041Z,1.42
2023-02-08T22:22:59.618Z,1.32
2023-02-08T22:25:28.108Z,1.16
2023-02-08T22:27:56.539Z,1.21
2023-02-08T22:30:25.713Z,0.98
2023-02-08T22:32:54.428Z,0.80
2023-02-08T22:35:22.974Z,0.91
2023-02-08T22:37:51.586Z,0.90
2023-02-08T22:40:20.509Z,0.82
2023-02-08T22:42:49.000Z,0.84
2023-02-08T22:45:17.586Z,0.84
2023-02-08T22:47:46.291Z,0.78
2023-02-08T22:50:15.553Z,0.79
2023-02-08T22:52:43.998Z,0.88
2023-02-08T22:55:12.775Z,1.07
2023-02-08T22:57:43.692Z,1.03
2023-02-08T23:00:15.105Z,1.08
2023-02-08T23:02:43.873Z,1.07
2023-02-08T23:05:13.201Z,1.20
2023-02-08T23:07:41.883Z,1.26
2023-02-08T23:10:11.998Z,1.46
2023-02-08T23:12:40.561Z,1.51
2023-02-08T23:15:11.247Z,1.53
2023-02-08T23:17:49.011Z,1.52
2023-02-08T23:20:17.628Z,1.52
2023-02-08T23:22:46.133Z,1.42
2023-02-08T23:25:15.708Z,1.37
2023-02-08T23:27:44.244Z,1.36
2023-02-08T23:30:13.072Z,1.33
2023-02-08T23:32:42.260Z,1.28
2023-02-08T23:35:11.116Z,1.31
2023-02-08T23:37:39.691Z,1.21
2023-02-08T23:40:11.577Z,1.16
2023-02-08T23:42:40.052Z,1.06
2023-02-08T23:45:08.861Z,1.02
2023-02-08T23:47:38.050Z,0.97
2023-02-08T23:50:08.138Z,1.00
2023-02-08T23:52:37.467Z,1.05
2023-02-08T23:55:06.591Z,1.02
2023-02-08T23:57:37.826Z,1.01
